Arklow Rock — PBZM — position and weather

sailwx.info

Track history (hours):
 
Tides and Currents Weather Stations Pressure Air Temp Water Temp Dewpoint Dewpoint Depression Visibility Wind Speed Wind Dir Waves Ship Positions

Arklow Rock

Last reported at 2014-Sep-20 06:33 UTC. Time now 2014-Sep-20 07:56 UTC.
Position N 50°31' E 000°52'.

Length 90 m; draft 6 m.

Type: Cargo ship. MMSI: 246002000.

Date/timePositionNaut miles runAvg speedWind from/ knotsBaromVisibWave heightAir tempDewpointWater temp
2014-Sep-20 06:33N 50°31' E 000°52'1211.8
2014-Sep-20 05:33N 50°28' E 000°35'1211.9
2014-Sep-20 04:33N 50°25' E 000°17'2411.2
2014-Sep-20 02:23N 50°21' W 000°21'28 9.6
2014-Sep-19 23:26N 50°21' W 001°05'8 8.9
2014-Sep-19 22:32N 50°20' W 001°18'9 9.2
2014-Sep-19 21:31N 50°21' W 001°32'199 6.9
2014-Sep-18 16:33N 52°19' W 005°50'10 9.9
2014-Sep-18 15:33N 52°29' W 005°48'11211.2
2014-Sep-18 05:33N 54°19' W 005°21'1111.3
2014-Sep-18 04:33N 54°30' W 005°22'1212.3
2014-Sep-18 03:33N 54°42' W 005°29'1110.6
2014-Sep-18 02:33N 54°41' W 005°47'6 6.2
2014-Sep-18 01:33N 54°37' W 005°55'0 0.0
2014-Sep-18 00:24N 54°37' W 005°55'0 0.0
2014-Sep-17 23:30N 54°37' W 005°55'0 0.0
2014-Sep-17 22:30N 54°37' W 005°55'0 0.0
2014-Sep-17 21:27N 54°37' W 005°55'0 0.0
2014-Sep-17 19:18N 54°37' W 005°55'0 0.0
2014-Sep-17 18:30N 54°37' W 005°55'0 0.0
2014-Sep-17 17:27N 54°37' W 005°55'0 0.0
2014-Sep-17 15:33N 54°37' W 005°55'0 0.0
2014-Sep-17 14:12N 54°37' W 005°55'0 0.0
2014-Sep-17 13:30N 54°37' W 005°55'0 0.0
2014-Sep-17 12:30N 54°37' W 005°55'0 0.0
2014-Sep-17 11:12N 54°37' W 005°55'0 0.0
2014-Sep-17 10:33N 54°37' W 005°55'0 0.0
2014-Sep-17 09:24N 54°37' W 005°55'0 0.0
2014-Sep-17 08:30N 54°37' W 005°55'0 0.0
2014-Sep-17 06:24N 54°37' W 005°55'0 0.0
2014-Sep-17 05:21N 54°37' W 005°55'2 2.0
2014-Sep-17 04:33N 54°38' W 005°53'1110.8
2014-Sep-17 03:33N 54°43' W 005°37'9 9.2
2014-Sep-17 02:33N 54°37' W 005°25'1111.4
2014-Sep-17 01:33N 54°27' W 005°15'1211.7
2014-Sep-17 00:33N 54°17' W 005°05'4911.2
2014-Sep-16 20:09N 53°44' W 004°02'812.2
2014-Sep-16 19:32N 53°40' W 003°51'1212.4
2014-Sep-16 18:33N 53°35' W 003°33'1110.4
2014-Sep-16 17:32N 53°31' W 003°16'1010.1
2014-Sep-16 16:33N 53°26' W 003°02'5 4.8
2014-Sep-16 15:27N 53°21' W 002°59'0 0.0
2014-Sep-16 14:21N 53°21' W 002°59'0 0.0
2014-Sep-16 13:09N 53°21' W 002°59'0 0.0
2014-Sep-16 12:27N 53°21' W 002°59'0 0.0
2014-Sep-16 11:27N 53°21' W 002°59'0 0.0
2014-Sep-16 10:27N 53°21' W 002°59'0 0.0
2014-Sep-16 09:27N 53°21' W 002°59'0 0.0
2014-Sep-16 08:33N 53°21' W 002°59'0 0.0
2014-Sep-16 07:33N 53°21' W 002°59'0 0.0
2014-Sep-16 06:32N 53°21' W 002°59'0 0.0
2014-Sep-16 05:32N 53°21' W 002°59'0 0.0
2014-Sep-16 04:32N 53°21' W 002°59'0 0.0
2014-Sep-16 03:32N 53°21' W 002°59'0 0.0
2014-Sep-16 02:32N 53°21' W 002°59'0 0.0
2014-Sep-16 01:32N 53°21' W 002°59'0 0.0
2014-Sep-16 00:32N 53°21' W 002°59'0 0.0
2014-Sep-15 23:20N 53°21' W 002°59'0 0.0
2014-Sep-15 22:32N 53°21' W 002°59'0 0.0
2014-Sep-15 21:32N 53°21' W 002°59'0 0.0
2014-Sep-15 20:26N 53°21' W 002°59'0 0.0
2014-Sep-15 19:32N 53°21' W 002°59'0 0.0
2014-Sep-15 18:20N 53°21' W 002°59'0 0.0
2014-Sep-15 17:26N 53°21' W 002°59'0 0.0
2014-Sep-15 16:32N 53°21' W 002°59'0 0.0
2014-Sep-15 15:26N 53°21' W 002°59'0 0.0
2014-Sep-15 14:32N 53°21' W 002°59'0 0.0
2014-Sep-15 13:32N 53°21' W 002°59'0 0.0
2014-Sep-15 12:32N 53°21' W 002°59'0 0.0
2014-Sep-15 11:32N 53°21' W 002°59'0 0.0
2014-Sep-15 10:32N 53°21' W 002°59'0 0.0
2014-Sep-15 09:32N 53°21' W 002°59'0 0.0
2014-Sep-15 08:20N 53°21' W 002°59'0 0.0
2014-Sep-15 07:32N 53°21' W 002°59'0 0.0
2014-Sep-15 06:20N 53°21' W 002°59'0 0.0
2014-Sep-15 05:32N 53°21' W 002°59'0 0.0
2014-Sep-15 04:32N 53°21' W 002°59'0 0.0
2014-Sep-15 03:14N 53°21' W 002°59'0 0.0
2014-Sep-15 02:26N 53°21' W 002°59'0 0.0
2014-Sep-15 01:32N 53°21' W 002°59'0 0.0
2014-Sep-15 00:32N 53°21' W 002°59'0 0.0
2014-Sep-14 23:20N 53°21' W 002°59'0 0.0
2014-Sep-14 22:26N 53°21' W 002°59'0 0.0
2014-Sep-14 21:31N 53°21' W 002°59'0 0.0
2014-Sep-14 20:31N 53°21' W 002°59'  
2014-Sep-11 23:07N 53°31' W 003°07'611.2
2014-Sep-11 22:33N 53°31' W 003°17'8 8.2
2014-Sep-11 21:33N 53°31' W 003°31'1312.6
2014-Sep-11 20:34N 53°35' W 003°51'1211.7
2014-Sep-11 19:33N 53°42' W 004°07'1110.7
2014-Sep-11 18:33N 53°48' W 004°23'8 8.2
2014-Sep-11 17:33N 53°52' W 004°35'7 7.1
2014-Sep-11 16:33N 53°55' W 004°45'19 6.1
2014-Sep-11 13:26N 54°14' W 004°50'8 8.8
2014-Sep-11 12:34N 54°22' W 004°50'13 8.9
2014-Sep-11 11:08N 54°34' W 004°55'910.5
2014-Sep-11 10:17N 54°42' W 005°03'811.0
2014-Sep-11 09:34N 54°49' W 005°10'7 6.6
2014-Sep-11 08:33N 54°54' W 005°16'8 7.9
2014-Sep-11 07:33N 54°59' W 005°26'10 9.4
2014-Sep-11 06:31N 55°05' W 005°40'7 7.7
2014-Sep-11 05:33N 55°11' W 005°48'6 6.4
2014-Sep-11 04:33N 55°17' W 005°51'4 3.8
2014-Sep-11 03:33N 55°20' W 005°53'6 5.2
2014-Sep-11 02:29N 55°26' W 005°52'7 7.3
2014-Sep-11 01:31N 55°33' W 005°51'8 8.3
2014-Sep-11 00:33N 55°41' W 005°50'9 8.9
2014-Sep-10 23:31N 55°50' W 005°47'27 9.1
2014-Sep-10 20:32N 56°17' W 005°44'  
Track history (hours):
 
Tides and Currents Weather Stations Pressure Air Temp Water Temp Dewpoint Dewpoint Depression Visibility Wind Speed Wind Dir Waves Ship Positions

Arklow Rock

Last reported at 2014-Sep-20 06:33 UTC. Time now 2014-Sep-20 07:56 UTC.
Position N 50°31' E 000°52'.

Length 90 m; draft 6 m.

Type: Cargo ship. MMSI: 246002000.

Date/timePositionNaut miles runAvg speedWind from/ knotsBaromVisibWave heightAir tempDewpointWater temp
2014-Sep-20 06:33N 50°31' E 000°52'1211.8
2014-Sep-20 05:33N 50°28' E 000°35'1211.9
2014-Sep-20 04:33N 50°25' E 000°17'2411.2
2014-Sep-20 02:23N 50°21' W 000°21'28 9.6
2014-Sep-19 23:26N 50°21' W 001°05'8 8.9
2014-Sep-19 22:32N 50°20' W 001°18'9 9.2
2014-Sep-19 21:31N 50°21' W 001°32'199 6.9
2014-Sep-18 16:33N 52°19' W 005°50'10 9.9
2014-Sep-18 15:33N 52°29' W 005°48'11211.2
2014-Sep-18 05:33N 54°19' W 005°21'1111.3
2014-Sep-18 04:33N 54°30' W 005°22'1212.3
2014-Sep-18 03:33N 54°42' W 005°29'1110.6
2014-Sep-18 02:33N 54°41' W 005°47'6 6.2
2014-Sep-18 01:33N 54°37' W 005°55'0 0.0
2014-Sep-18 00:24N 54°37' W 005°55'0 0.0
2014-Sep-17 23:30N 54°37' W 005°55'0 0.0
2014-Sep-17 22:30N 54°37' W 005°55'0 0.0
2014-Sep-17 21:27N 54°37' W 005°55'0 0.0
2014-Sep-17 19:18N 54°37' W 005°55'0 0.0
2014-Sep-17 18:30N 54°37' W 005°55'0 0.0
2014-Sep-17 17:27N 54°37' W 005°55'0 0.0
2014-Sep-17 15:33N 54°37' W 005°55'0 0.0
2014-Sep-17 14:12N 54°37' W 005°55'0 0.0
2014-Sep-17 13:30N 54°37' W 005°55'0 0.0
2014-Sep-17 12:30N 54°37' W 005°55'0 0.0
2014-Sep-17 11:12N 54°37' W 005°55'0 0.0
2014-Sep-17 10:33N 54°37' W 005°55'0 0.0
2014-Sep-17 09:24N 54°37' W 005°55'0 0.0
2014-Sep-17 08:30N 54°37' W 005°55'0 0.0
2014-Sep-17 06:24N 54°37' W 005°55'0 0.0
2014-Sep-17 05:21N 54°37' W 005°55'2 2.0
2014-Sep-17 04:33N 54°38' W 005°53'1110.8
2014-Sep-17 03:33N 54°43' W 005°37'9 9.2
2014-Sep-17 02:33N 54°37' W 005°25'1111.4
2014-Sep-17 01:33N 54°27' W 005°15'1211.7
2014-Sep-17 00:33N 54°17' W 005°05'4911.2
2014-Sep-16 20:09N 53°44' W 004°02'812.2
2014-Sep-16 19:32N 53°40' W 003°51'1212.4
2014-Sep-16 18:33N 53°35' W 003°33'1110.4
2014-Sep-16 17:32N 53°31' W 003°16'1010.1
2014-Sep-16 16:33N 53°26' W 003°02'5 4.8
2014-Sep-16 15:27N 53°21' W 002°59'0 0.0
2014-Sep-16 14:21N 53°21' W 002°59'0 0.0
2014-Sep-16 13:09N 53°21' W 002°59'0 0.0
2014-Sep-16 12:27N 53°21' W 002°59'0 0.0
2014-Sep-16 11:27N 53°21' W 002°59'0 0.0
2014-Sep-16 10:27N 53°21' W 002°59'0 0.0
2014-Sep-16 09:27N 53°21' W 002°59'0 0.0
2014-Sep-16 08:33N 53°21' W 002°59'0 0.0
2014-Sep-16 07:33N 53°21' W 002°59'0 0.0
2014-Sep-16 06:32N 53°21' W 002°59'0 0.0
2014-Sep-16 05:32N 53°21' W 002°59'0 0.0
2014-Sep-16 04:32N 53°21' W 002°59'0 0.0
2014-Sep-16 03:32N 53°21' W 002°59'0 0.0
2014-Sep-16 02:32N 53°21' W 002°59'0 0.0
2014-Sep-16 01:32N 53°21' W 002°59'0 0.0
2014-Sep-16 00:32N 53°21' W 002°59'0 0.0
2014-Sep-15 23:20N 53°21' W 002°59'0 0.0
2014-Sep-15 22:32N 53°21' W 002°59'0 0.0
2014-Sep-15 21:32N 53°21' W 002°59'0 0.0
2014-Sep-15 20:26N 53°21' W 002°59'0 0.0
2014-Sep-15 19:32N 53°21' W 002°59'0 0.0
2014-Sep-15 18:20N 53°21' W 002°59'0 0.0
2014-Sep-15 17:26N 53°21' W 002°59'0 0.0
2014-Sep-15 16:32N 53°21' W 002°59'0 0.0
2014-Sep-15 15:26N 53°21' W 002°59'0 0.0
2014-Sep-15 14:32N 53°21' W 002°59'0 0.0
2014-Sep-15 13:32N 53°21' W 002°59'0 0.0
2014-Sep-15 12:32N 53°21' W 002°59'0 0.0
2014-Sep-15 11:32N 53°21' W 002°59'0 0.0
2014-Sep-15 10:32N 53°21' W 002°59'0 0.0
2014-Sep-15 09:32N 53°21' W 002°59'0 0.0
2014-Sep-15 08:20N 53°21' W 002°59'0 0.0
2014-Sep-15 07:32N 53°21' W 002°59'0 0.0
2014-Sep-15 06:20N 53°21' W 002°59'0 0.0
2014-Sep-15 05:32N 53°21' W 002°59'0 0.0
2014-Sep-15 04:32N 53°21' W 002°59'0 0.0
2014-Sep-15 03:14N 53°21' W 002°59'0 0.0
2014-Sep-15 02:26N 53°21' W 002°59'0 0.0
2014-Sep-15 01:32N 53°21' W 002°59'0 0.0
2014-Sep-15 00:32N 53°21' W 002°59'0 0.0
2014-Sep-14 23:20N 53°21' W 002°59'0 0.0
2014-Sep-14 22:26N 53°21' W 002°59'0 0.0
2014-Sep-14 21:31N 53°21' W 002°59'0 0.0
2014-Sep-14 20:31N 53°21' W 002°59'  
2014-Sep-11 23:07N 53°31' W 003°07'611.2
2014-Sep-11 22:33N 53°31' W 003°17'8 8.2
2014-Sep-11 21:33N 53°31' W 003°31'1312.6
2014-Sep-11 20:34N 53°35' W 003°51'1211.7
2014-Sep-11 19:33N 53°42' W 004°07'1110.7
2014-Sep-11 18:33N 53°48' W 004°23'8 8.2
2014-Sep-11 17:33N 53°52' W 004°35'7 7.1
2014-Sep-11 16:33N 53°55' W 004°45'19 6.1
2014-Sep-11 13:26N 54°14' W 004°50'8 8.8
2014-Sep-11 12:34N 54°22' W 004°50'13 8.9
2014-Sep-11 11:08N 54°34' W 004°55'910.5
2014-Sep-11 10:17N 54°42' W 005°03'811.0
2014-Sep-11 09:34N 54°49' W 005°10'7 6.6
2014-Sep-11 08:33N 54°54' W 005°16'8 7.9
2014-Sep-11 07:33N 54°59' W 005°26'10 9.4
2014-Sep-11 06:31N 55°05' W 005°40'7 7.7
2014-Sep-11 05:33N 55°11' W 005°48'6 6.4
2014-Sep-11 04:33N 55°17' W 005°51'4 3.8
2014-Sep-11 03:33N 55°20' W 005°53'6 5.2
2014-Sep-11 02:29N 55°26' W 005°52'7 7.3
2014-Sep-11 01:31N 55°33' W 005°51'8 8.3
2014-Sep-11 00:33N 55°41' W 005°50'9 8.9
2014-Sep-10 23:31N 55°50' W 005°47'27 9.1
2014-Sep-10 20:32N 56°17' W 005°44'  

Dump ship's entire track history